createdAt,value
2022-12-27T00:01:13.448Z,11.02
2022-12-27T00:03:45.955Z,11.12
2022-12-27T00:06:16.242Z,10.45
2022-12-27T00:08:46.089Z,10.79
2022-12-27T00:11:16.574Z,10.58
2022-12-27T00:13:46.497Z,11.03
2022-12-27T00:16:16.784Z,10.94
2022-12-27T00:18:46.514Z,10.99
2022-12-27T00:21:15.375Z,10.80
2022-12-27T00:23:46.680Z,11.09
2022-12-27T00:26:20.226Z,11.04
2022-12-27T00:28:50.306Z,10.91
2022-12-27T00:31:20.989Z,10.96
2022-12-27T00:33:50.800Z,10.72
2022-12-27T00:36:21.099Z,10.67
2022-12-27T00:38:49.759Z,10.85
2022-12-27T00:41:18.609Z,10.74
2022-12-27T00:43:47.585Z,10.88
2022-12-27T00:46:17.428Z,10.56
2022-12-27T00:48:46.112Z,10.72
2022-12-27T00:51:16.321Z,10.70
2022-12-27T00:53:47.672Z,10.65
2022-12-27T00:56:21.192Z,10.64
2022-12-27T00:58:53.285Z,10.62
2022-12-27T01:01:24.885Z,10.54
2022-12-27T01:03:53.421Z,10.44
2022-12-27T01:06:23.615Z,10.31
2022-12-27T01:08:52.265Z,10.19
2022-12-27T01:11:20.516Z,10.07
2022-12-27T01:13:49.680Z,10.00
2022-12-27T01:16:19.758Z,9.97
2022-12-27T01:18:49.710Z,9.89
2022-12-27T01:21:20.958Z,9.76
2022-12-27T01:23:49.753Z,9.78
2022-12-27T01:26:20.211Z,9.82
2022-12-27T01:28:49.896Z,9.82
2022-12-27T01:31:20.726Z,9.77
2022-12-27T01:33:50.602Z,9.71
2022-12-27T01:36:21.186Z,9.60
2022-12-27T01:38:50.219Z,9.55
2022-12-27T01:41:38.829Z,9.40
2022-12-27T01:44:44.040Z,9.31
2022-12-27T01:47:21.161Z,9.09
2022-12-27T01:50:10.319Z,9.32
2022-12-27T01:52:46.897Z,9.25
2022-12-27T01:55:21.390Z,9.25
2022-12-27T01:57:51.641Z,9.32
2022-12-27T02:00:20.529Z,9.21
2022-12-27T02:02:49.852Z,9.19
2022-12-27T02:05:20.862Z,9.27
2022-12-27T02:08:01.323Z,9.29
2022-12-27T02:10:30.383Z,9.13
2022-12-27T02:12:59.735Z,9.18
2022-12-27T02:15:29.165Z,8.85
2022-12-27T02:17:57.646Z,9.07
2022-12-27T02:20:32.390Z,9.00
2022-12-27T02:24:04.597Z,9.00
2022-12-27T02:26:51.033Z,9.04
2022-12-27T02:29:44.460Z,8.83
2022-12-27T02:32:18.398Z,8.85
2022-12-27T02:34:55.172Z,8.96
2022-12-27T02:37:26.095Z,9.01
2022-12-27T02:39:57.113Z,8.86
2022-12-27T02:42:43.814Z,8.87
2022-12-27T02:45:38.308Z,8.74
2022-12-27T02:48:31.945Z,8.82
2022-12-27T02:51:27.046Z,8.74
2022-12-27T02:54:03.680Z,8.75
2022-12-27T02:57:00.622Z,8.75
2022-12-27T03:00:02.965Z,8.75
2022-12-27T03:02:59.559Z,8.71
2022-12-27T03:05:41.462Z,8.60
2022-12-27T03:08:17.825Z,8.52
2022-12-27T03:11:08.436Z,8.51
2022-12-27T03:14:01.459Z,8.35
2022-12-27T03:16:37.885Z,8.28
2022-12-27T03:19:13.939Z,8.29
2022-12-27T03:22:03.396Z,8.29
2022-12-27T03:25:02.548Z,8.30
2022-12-27T03:27:34.370Z,8.16
2022-12-27T03:30:25.684Z,8.26
2022-12-27T03:33:14.247Z,8.19
2022-12-27T03:36:08.587Z,8.33
2022-12-27T03:38:43.296Z,8.08
2022-12-27T03:41:36.264Z,8.24
2022-12-27T03:44:24.715Z,8.15
2022-12-27T03:46:55.691Z,8.46
2022-12-27T03:49:31.582Z,8.50
2022-12-27T03:52:08.536Z,8.58
2022-12-27T03:54:39.868Z,8.67
2022-12-27T03:57:13.407Z,8.66
2022-12-27T03:59:41.886Z,8.65
2022-12-27T04:02:11.041Z,8.37
2022-12-27T04:04:39.571Z,8.54
2022-12-27T04:07:09.152Z,8.37
2022-12-27T04:09:54.744Z,8.46
2022-12-27T04:12:41.423Z,8.43
2022-12-27T04:15:28.021Z,8.29
2022-12-27T04:18:14.013Z,8.33
2022-12-27T04:20:59.842Z,8.25
2022-12-27T04:23:47.024Z,7.99
2022-12-27T04:26:33.158Z,8.18
2022-12-27T04:29:19.100Z,8.19
2022-12-27T04:32:04.656Z,8.23
2022-12-27T04:34:43.536Z,8.14
2022-12-27T04:37:14.771Z,8.24
2022-12-27T04:40:08.948Z,8.13
2022-12-27T04:42:54.929Z,7.99
2022-12-27T04:45:41.519Z,8.03
2022-12-27T04:48:31.582Z,8.11
2022-12-27T04:51:18.656Z,8.01
2022-12-27T04:54:04.986Z,7.80
2022-12-27T04:56:34.777Z,8.02
2022-12-27T04:59:20.693Z,8.15
2022-12-27T05:02:04.748Z,8.11
2022-12-27T05:04:34.866Z,8.08
2022-12-27T05:07:24.767Z,7.83
2022-12-27T05:10:10.712Z,8.02
2022-12-27T05:13:00.244Z,8.01
2022-12-27T05:15:30.266Z,8.04
2022-12-27T05:17:59.016Z,8.08
2022-12-27T05:20:27.229Z,8.14
2022-12-27T05:23:12.843Z,8.13
2022-12-27T05:25:45.818Z,8.02
2022-12-27T05:28:15.612Z,7.97
2022-12-27T05:30:45.022Z,8.02
2022-12-27T05:33:13.645Z,7.95
2022-12-27T05:35:42.116Z,8.15
2022-12-27T05:38:10.903Z,8.07
2022-12-27T05:40:39.085Z,7.94
2022-12-27T05:43:07.273Z,7.94
2022-12-27T05:45:37.064Z,7.83
2022-12-27T05:48:06.006Z,7.86
2022-12-27T05:50:34.101Z,7.98
2022-12-27T05:53:11.210Z,7.99
2022-12-27T05:55:39.390Z,7.90
2022-12-27T05:58:10.509Z,7.88
2022-12-27T06:00:40.149Z,7.96
2022-12-27T06:03:08.555Z,7.88
2022-12-27T06:05:36.836Z,8.12
2022-12-27T06:08:05.214Z,8.09
2022-12-27T06:10:34.229Z,8.06
2022-12-27T06:13:03.332Z,8.12
2022-12-27T06:15:31.506Z,8.06
2022-12-27T06:18:03.509Z,8.19
2022-12-27T06:20:35.048Z,8.00
2022-12-27T06:23:03.412Z,8.17
2022-12-27T06:25:31.524Z,7.96
2022-12-27T06:27:59.691Z,8.05
2022-12-27T06:30:32.866Z,8.13
2022-12-27T06:33:05.318Z,8.11
2022-12-27T06:35:33.983Z,8.05
2022-12-27T06:38:02.945Z,8.15
2022-12-27T06:40:31.185Z,7.96
2022-12-27T06:43:02.739Z,8.03
2022-12-27T06:45:32.630Z,8.17
2022-12-27T06:48:02.296Z,8.01
2022-12-27T06:50:32.011Z,8.06
2022-12-27T06:53:00.618Z,8.12
2022-12-27T06:55:28.884Z,8.07
2022-12-27T06:57:57.055Z,7.98
2022-12-27T07:00:25.541Z,8.16
2022-12-27T07:02:55.668Z,8.08
2022-12-27T07:05:23.872Z,8.04
2022-12-27T07:07:54.500Z,7.89
2022-12-27T07:10:22.748Z,8.05
2022-12-27T07:12:50.875Z,8.14
2022-12-27T07:15:19.428Z,8.04
2022-12-27T07:17:47.570Z,8.13
2022-12-27T07:20:16.177Z,8.05
2022-12-27T07:22:44.691Z,8.10
2022-12-27T07:25:14.294Z,8.09
2022-12-27T07:27:42.470Z,8.14
2022-12-27T07:30:11.913Z,8.08
2022-12-27T07:32:39.978Z,8.07
2022-12-27T07:35:09.819Z,8.29
2022-12-27T07:37:39.719Z,8.20
2022-12-27T07:40:15.037Z,8.34
2022-12-27T07:42:45.353Z,8.39
2022-12-27T07:45:13.669Z,8.44
2022-12-27T07:47:42.152Z,8.66
2022-12-27T07:50:14.152Z,8.61
2022-12-27T07:52:42.529Z,8.49
2022-12-27T07:55:11.648Z,8.66
2022-12-27T07:57:40.891Z,8.58
2022-12-27T08:00:13.405Z,8.63
2022-12-27T08:02:43.497Z,8.77
2022-12-27T08:05:13.602Z,8.70
2022-12-27T08:07:48.956Z,8.85
2022-12-27T08:10:17.548Z,8.81
2022-12-27T08:12:46.276Z,8.92
2022-12-27T08:15:15.800Z,8.92
2022-12-27T08:17:44.265Z,9.01
2022-12-27T08:20:15.955Z,9.03
2022-12-27T08:22:44.283Z,9.10
2022-12-27T08:25:12.243Z,9.15
2022-12-27T08:27:40.237Z,9.17
2022-12-27T08:30:09.900Z,9.33
2022-12-27T08:32:39.426Z,9.36
2022-12-27T08:35:41.954Z,9.34
2022-12-27T08:37:56.596Z,9.37
2022-12-27T08:40:24.955Z,9.40
2022-12-27T08:42:53.141Z,9.27
2022-12-27T08:45:21.730Z,9.43
2022-12-27T08:47:51.259Z,9.54
2022-12-27T08:50:19.480Z,9.58
2022-12-27T08:52:47.881Z,9.53
2022-12-27T08:55:16.265Z,9.54
2022-12-27T08:57:44.702Z,9.54
2022-12-27T09:00:16.814Z,9.49
2022-12-27T09:02:45.644Z,9.67
2022-12-27T09:05:15.842Z,9.59
2022-12-27T09:07:43.985Z,9.37
2022-12-27T09:10:12.137Z,9.65
2022-12-27T09:12:40.699Z,9.94
2022-12-27T09:15:10.014Z,10.00
2022-12-27T09:17:38.336Z,9.88
2022-12-27T09:20:08.102Z,9.94
2022-12-27T09:22:37.497Z,10.16
2022-12-27T09:25:06.664Z,10.15
2022-12-27T09:27:35.739Z,10.45
2022-12-27T09:30:05.211Z,10.53
2022-12-27T09:32:33.612Z,10.61
2022-12-27T09:35:02.008Z,10.72
2022-12-27T09:37:30.133Z,10.70
2022-12-27T09:40:02.224Z,10.84
2022-12-27T09:42:57.723Z,10.79
2022-12-27T09:45:38.899Z,10.91
2022-12-27T09:48:13.943Z,11.07
2022-12-27T09:50:51.057Z,10.88
2022-12-27T09:53:25.081Z,11.24
2022-12-27T09:55:57.963Z,11.17
2022-12-27T09:58:38.416Z,11.39
2022-12-27T10:01:21.640Z,11.54
2022-12-27T10:03:50.378Z,11.64
2022-12-27T10:06:48.228Z,11.65
2022-12-27T10:09:34.240Z,11.82
2022-12-27T10:12:13.869Z,11.63
2022-12-27T10:14:58.448Z,11.62
2022-12-27T10:17:45.724Z,11.73
2022-12-27T10:20:26.155Z,11.61
2022-12-27T10:23:04.270Z,11.65
2022-12-27T10:25:37.005Z,11.82
2022-12-27T10:28:15.419Z,11.73
2022-12-27T10:30:44.736Z,11.92
2022-12-27T10:33:20.662Z,11.87
2022-12-27T10:35:49.481Z,12.08
2022-12-27T10:38:17.545Z,12.32
2022-12-27T10:40:55.032Z,12.11
2022-12-27T10:43:32.870Z,12.37
2022-12-27T10:46:16.067Z,12.16
2022-12-27T10:49:20.234Z,11.79
2022-12-27T10:51:43.329Z,12.24
2022-12-27T10:54:14.980Z,12.23
2022-12-27T10:56:44.320Z,12.00
2022-12-27T10:59:16.875Z,12.38
2022-12-27T11:01:46.700Z,12.13
2022-12-27T11:04:20.984Z,12.14
2022-12-27T11:06:51.723Z,12.27
2022-12-27T11:09:32.625Z,12.38
2022-12-27T11:12:18.418Z,12.11
2022-12-27T11:15:00.286Z,12.46
2022-12-27T11:17:34.581Z,12.61
2022-12-27T11:20:20.232Z,12.55
2022-12-27T11:22:51.306Z,12.30
2022-12-27T11:25:20.523Z,12.66
2022-12-27T11:27:52.296Z,12.60
2022-12-27T11:30:29.992Z,12.84
2022-12-27T11:33:02.373Z,12.80
2022-12-27T11:35:30.858Z,12.99
2022-12-27T11:37:59.122Z,12.68
2022-12-27T11:40:34.665Z,12.73
2022-12-27T11:43:09.516Z,12.70
2022-12-27T11:45:43.417Z,12.84
2022-12-27T11:48:22.049Z,13.27
2022-12-27T11:51:14.507Z,12.75
2022-12-27T11:54:12.983Z,12.54
2022-12-27T11:56:44.730Z,12.49
2022-12-27T11:59:32.163Z,12.50
2022-12-27T12:02:36.414Z,12.89
2022-12-27T12:05:37.616Z,13.10
2022-12-27T12:08:35.210Z,13.00
2022-12-27T12:11:16.166Z,13.48
2022-12-27T12:14:01.128Z,13.02
2022-12-27T12:17:05.483Z,13.30
2022-12-27T12:20:01.061Z,12.95
2022-12-27T12:22:41.032Z,13.28
2022-12-27T12:25:32.928Z,13.10
2022-12-27T12:28:55.698Z,13.35
2022-12-27T12:31:24.738Z,12.98
2022-12-27T12:34:07.169Z,12.79
2022-12-27T12:36:52.776Z,12.89
2022-12-27T12:39:30.279Z,13.04
2022-12-27T12:42:20.572Z,12.97
2022-12-27T12:45:06.463Z,12.77
2022-12-27T12:47:56.730Z,12.30
2022-12-27T12:50:34.980Z,12.60
2022-12-27T12:53:21.750Z,12.43
2022-12-27T12:56:05.126Z,12.22
2022-12-27T12:58:44.362Z,12.24
2022-12-27T13:01:27.774Z,12.37
2022-12-27T13:04:23.368Z,12.68
2022-12-27T13:07:25.335Z,12.86
2022-12-27T13:10:34.247Z,12.89
2022-12-27T13:13:12.018Z,12.97
2022-12-27T13:16:04.604Z,12.94
2022-12-27T13:18:39.989Z,12.91
2022-12-27T13:21:17.377Z,12.82
2022-12-27T13:23:57.611Z,12.85
2022-12-27T13:26:35.563Z,12.99
2022-12-27T13:29:22.232Z,13.05
2022-12-27T13:32:01.152Z,13.10
2022-12-27T13:34:39.871Z,13.00
2022-12-27T13:37:21.774Z,13.05
2022-12-27T13:40:07.549Z,13.02
2022-12-27T13:43:06.454Z,12.98
2022-12-27T13:45:49.707Z,13.10
2022-12-27T13:48:41.698Z,12.97
2022-12-27T13:51:25.575Z,13.01
2022-12-27T13:54:18.184Z,12.77
2022-12-27T13:56:55.916Z,12.80
2022-12-27T14:00:12.634Z,12.79
2022-12-27T14:04:02.965Z,12.70
2022-12-27T14:06:50.096Z,12.59
2022-12-27T14:09:34.735Z,12.67
2022-12-27T14:12:21.347Z,12.43
2022-12-27T14:14:50.887Z,12.53
2022-12-27T14:17:33.187Z,12.49
2022-12-27T14:20:18.565Z,12.48
2022-12-27T14:23:17.498Z,12.35
2022-12-27T14:26:24.422Z,12.46
2022-12-27T14:29:29.337Z,12.34
2022-12-27T14:32:26.434Z,12.36
2022-12-27T14:35:43.679Z,12.22
2022-12-27T14:38:35.737Z,12.24
2022-12-27T14:42:01.914Z,12.05
2022-12-27T14:45:01.978Z,11.80
2022-12-27T14:47:58.399Z,11.86
2022-12-27T14:51:32.703Z,11.74
2022-12-27T14:54:42.622Z,11.90
2022-12-27T14:57:31.719Z,11.83
2022-12-27T15:00:13.086Z,11.68
2022-12-27T15:02:57.805Z,11.58
2022-12-27T15:05:46.523Z,11.59
2022-12-27T15:08:43.311Z,11.56
2022-12-27T15:11:40.422Z,11.39
2022-12-27T15:14:24.315Z,11.37
2022-12-27T15:17:03.071Z,11.14
2022-12-27T15:19:45.700Z,11.09
2022-12-27T15:22:24.752Z,11.14
2022-12-27T15:25:00.459Z,11.00
2022-12-27T15:27:34.065Z,11.10
2022-12-27T15:30:24.479Z,11.10
2022-12-27T15:33:02.270Z,11.08
2022-12-27T15:35:50.798Z,11.05
2022-12-27T15:38:24.174Z,11.07
2022-12-27T15:41:23.073Z,11.07
2022-12-27T15:44:13.380Z,11.12
2022-12-27T15:47:06.792Z,11.14
2022-12-27T15:49:55.602Z,11.17
2022-12-27T15:52:38.040Z,11.16
2022-12-27T15:55:23.781Z,11.06
2022-12-27T15:58:06.168Z,11.05
2022-12-27T16:00:35.043Z,11.03
2022-12-27T16:03:28.410Z,11.01
2022-12-27T16:05:57.121Z,10.99
2022-12-27T16:08:37.796Z,10.92
2022-12-27T16:11:09.365Z,10.90
2022-12-27T16:13:49.711Z,10.85
2022-12-27T16:16:55.095Z,10.80
2022-12-27T16:20:00.451Z,10.78
2022-12-27T16:22:34.522Z,10.70
2022-12-27T16:25:25.393Z,10.63
2022-12-27T16:27:59.833Z,10.63
2022-12-27T16:30:36.919Z,10.56
2022-12-27T16:33:05.637Z,10.57
2022-12-27T16:35:35.447Z,10.53
2022-12-27T16:38:04.540Z,10.51
2022-12-27T16:40:43.059Z,10.51
2022-12-27T16:43:48.011Z,10.49
2022-12-27T16:46:31.411Z,10.50
2022-12-27T16:49:23.154Z,10.47
2022-12-27T16:52:07.326Z,10.44
2022-12-27T16:54:49.631Z,10.43
2022-12-27T16:57:40.334Z,10.42
2022-12-27T17:00:36.303Z,10.45
2022-12-27T17:03:45.889Z,10.46
2022-12-27T17:06:48.236Z,10.45
2022-12-27T17:09:42.343Z,10.45
2022-12-27T17:12:22.461Z,10.46
2022-12-27T17:14:55.700Z,10.44
2022-12-27T17:17:25.202Z,10.40
2022-12-27T17:20:02.090Z,10.42
2022-12-27T17:22:35.310Z,10.40
2022-12-27T17:25:05.696Z,10.42
2022-12-27T17:27:47.615Z,10.43
2022-12-27T17:30:23.358Z,10.44
2022-12-27T17:33:14.936Z,10.43
2022-12-27T17:35:59.113Z,10.47
2022-12-27T17:38:36.862Z,10.50
2022-12-27T17:41:16.025Z,10.51
2022-12-27T17:44:30.936Z,10.49
2022-12-27T17:47:15.368Z,10.52
2022-12-27T17:49:44.907Z,10.53
2022-12-27T17:52:36.009Z,10.57
2022-12-27T17:55:35.633Z,10.60
2022-12-27T17:58:11.908Z,10.63
2022-12-27T18:00:53.183Z,10.59
2022-12-27T18:03:26.875Z,10.64
2022-12-27T18:05:55.169Z,10.69
2022-12-27T18:08:28.210Z,10.70
2022-12-27T18:10:57.529Z,10.70
2022-12-27T18:13:31.120Z,10.68
2022-12-27T18:15:59.587Z,10.68
2022-12-27T18:18:31.484Z,10.64
2022-12-27T18:21:01.093Z,10.72
2022-12-27T18:23:29.471Z,10.79
2022-12-27T18:26:07.901Z,10.79
2022-12-27T18:28:41.216Z,10.82
2022-12-27T18:31:15.237Z,10.84
2022-12-27T18:33:46.363Z,10.86
2022-12-27T18:36:20.884Z,10.84
2022-12-27T18:38:56.308Z,10.89
2022-12-27T18:41:25.349Z,10.84
2022-12-27T18:44:01.002Z,10.94
2022-12-27T18:46:32.252Z,10.90
2022-12-27T18:49:01.321Z,10.96
2022-12-27T18:51:34.264Z,10.93
2022-12-27T18:54:03.183Z,10.92
2022-12-27T18:56:33.868Z,10.87
2022-12-27T18:59:06.404Z,10.90
2022-12-27T19:01:42.351Z,10.91
2022-12-27T19:04:23.969Z,10.87
2022-12-27T19:06:56.133Z,10.88
2022-12-27T19:09:28.112Z,10.76
2022-12-27T19:11:58.614Z,10.74
2022-12-27T19:14:36.947Z,10.75
2022-12-27T19:17:10.668Z,10.73
2022-12-27T19:19:39.693Z,10.66
2022-12-27T19:22:33.875Z,10.63
2022-12-27T19:25:05.341Z,10.63
2022-12-27T19:27:33.400Z,10.60
2022-12-27T19:30:03.045Z,10.61
2022-12-27T19:32:33.798Z,10.55
2022-12-27T19:35:04.957Z,10.52
2022-12-27T19:37:35.049Z,10.47
2022-12-27T19:40:03.443Z,10.47
2022-12-27T19:42:34.907Z,10.46
2022-12-27T19:45:04.851Z,10.45
2022-12-27T19:47:34.935Z,10.43
2022-12-27T19:50:04.245Z,10.44
2022-12-27T19:52:32.406Z,10.43
2022-12-27T19:55:05.505Z,10.38
2022-12-27T19:57:33.820Z,10.36
2022-12-27T20:00:05.388Z,10.39
2022-12-27T20:02:38.553Z,10.40
2022-12-27T20:05:07.632Z,10.42
2022-12-27T20:07:39.083Z,10.48
2022-12-27T20:10:08.633Z,10.44
2022-12-27T20:12:36.679Z,10.42
2022-12-27T20:15:05.693Z,10.44
2022-12-27T20:17:36.303Z,10.47
2022-12-27T20:20:09.338Z,10.53
2022-12-27T20:22:37.694Z,10.48
2022-12-27T20:25:06.298Z,10.43
2022-12-27T20:27:34.263Z,10.52
2022-12-27T20:30:02.784Z,10.48
2022-12-27T20:32:30.832Z,10.48
2022-12-27T20:34:58.933Z,10.53
2022-12-27T20:37:28.527Z,10.53
2022-12-27T20:39:56.572Z,10.55
2022-12-27T20:42:24.751Z,10.50
2022-12-27T20:44:53.115Z,10.36
2022-12-27T20:47:21.128Z,10.51
2022-12-27T20:49:49.204Z,10.46
2022-12-27T20:52:17.878Z,10.51
2022-12-27T20:54:47.209Z,10.51
2022-12-27T20:57:15.181Z,10.48
2022-12-27T20:59:43.470Z,10.41
2022-12-27T21:02:12.844Z,10.44
2022-12-27T21:04:41.214Z,10.32
2022-12-27T21:07:09.518Z,10.45
2022-12-27T21:09:38.016Z,10.45
2022-12-27T21:12:07.935Z,10.47
2022-12-27T21:14:37.325Z,10.46
2022-12-27T21:17:06.175Z,10.39
2022-12-27T21:19:34.599Z,10.50
2022-12-27T21:22:02.820Z,10.50
2022-12-27T21:24:30.809Z,10.35
2022-12-27T21:26:58.763Z,10.38
2022-12-27T21:29:28.469Z,10.39
2022-12-27T21:31:56.545Z,10.45
2022-12-27T21:34:24.533Z,10.42
2022-12-27T21:36:52.996Z,10.38
2022-12-27T21:39:21.195Z,10.44
2022-12-27T21:41:49.294Z,10.39
2022-12-27T21:44:17.678Z,10.43
2022-12-27T21:46:48.553Z,10.41
2022-12-27T21:49:16.764Z,10.46
2022-12-27T21:51:45.076Z,10.47
2022-12-27T21:54:13.946Z,10.45
2022-12-27T21:56:42.139Z,10.43
2022-12-27T21:59:12.028Z,10.45
2022-12-27T22:01:50.111Z,10.50
2022-12-27T22:04:21.727Z,10.39
2022-12-27T22:06:50.080Z,10.50
2022-12-27T22:09:19.279Z,10.47
2022-12-27T22:11:48.281Z,10.46
2022-12-27T22:14:16.279Z,10.53
2022-12-27T22:16:44.566Z,10.50
2022-12-27T22:19:14.187Z,10.48
2022-12-27T22:21:43.648Z,10.48
2022-12-27T22:24:15.461Z,10.54
2022-12-27T22:26:43.876Z,10.55
2022-12-27T22:29:12.258Z,10.54
2022-12-27T22:31:41.201Z,10.55
2022-12-27T22:34:09.468Z,10.52
2022-12-27T22:36:37.528Z,10.48
2022-12-27T22:39:07.028Z,10.47
2022-12-27T22:41:37.277Z,10.41
2022-12-27T22:44:07.796Z,10.45
2022-12-27T22:47:06.787Z,10.45
2022-12-27T22:49:24.749Z,10.30
2022-12-27T22:51:53.341Z,10.49
2022-12-27T22:55:05.183Z,10.55
2022-12-27T22:57:10.904Z,10.56
2022-12-27T22:59:38.913Z,10.60
2022-12-27T23:02:06.968Z,10.60
2022-12-27T23:04:38.423Z,10.60
2022-12-27T23:07:06.551Z,10.55
2022-12-27T23:09:42.626Z,10.57
2022-12-27T23:12:11.497Z,10.62
2022-12-27T23:14:39.896Z,10.62
2022-12-27T23:17:08.108Z,10.63
2022-12-27T23:19:36.551Z,10.63
2022-12-27T23:22:04.734Z,10.59
2022-12-27T23:24:32.940Z,10.52
2022-12-27T23:27:03.353Z,10.49
2022-12-27T23:29:31.542Z,10.48
2022-12-27T23:31:59.689Z,10.50
2022-12-27T23:34:29.315Z,10.51
2022-12-27T23:36:58.907Z,10.51
2022-12-27T23:39:28.027Z,10.58
2022-12-27T23:41:56.343Z,10.55
2022-12-27T23:44:33.333Z,10.54
2022-12-27T23:47:05.358Z,10.51
2022-12-27T23:49:36.396Z,10.50
2022-12-27T23:52:05.178Z,10.55
2022-12-27T23:54:33.289Z,10.53
2022-12-27T23:57:20.558Z,10.48
2022-12-27T23:59:51.666Z,10.54
